createdAt,value
2023-08-09T08:31:16.822Z,46.51
2023-08-09T08:41:22.692Z,41.73
2023-08-09T08:51:30.555Z,39.61
2023-08-09T09:01:36.771Z,38.48
2023-08-09T09:11:42.569Z,38.14
2023-08-09T09:21:48.225Z,37.62
2023-08-09T09:31:53.947Z,37.66
2023-08-09T09:41:59.871Z,37.13
2023-08-09T09:52:07.368Z,37.35
2023-08-09T10:02:14.120Z,37.80
2023-08-09T10:12:20.236Z,37.85
2023-08-09T10:22:28.728Z,38.19
2023-08-09T10:43:10.507Z,40.14
2023-08-09T10:53:23.407Z,42.62
2023-08-09T11:03:29.173Z,45.97
2023-08-09T11:13:44.611Z,48.27
2023-08-09T11:24:01.817Z,50.44
2023-08-09T11:34:08.320Z,52.29
2023-08-09T11:44:16.792Z,54.46
2023-08-09T11:54:23.124Z,56.31
2023-08-09T12:04:30.832Z,58.14
2023-08-09T12:14:38.507Z,58.82
2023-08-09T12:24:44.356Z,60.21
2023-08-09T12:34:51.481Z,61.18
2023-08-09T12:44:57.294Z,60.83
2023-08-09T12:55:03.130Z,60.08
2023-08-09T13:05:10.756Z,61.05
2023-08-09T13:15:16.485Z,61.51
2023-08-09T13:25:23.112Z,61.53
2023-08-09T13:35:28.943Z,61.59
2023-08-09T13:45:34.654Z,61.27
2023-08-09T13:55:40.652Z,62.31
2023-08-09T14:05:46.646Z,63.16
2023-08-09T14:15:52.772Z,63.84
2023-08-09T14:25:58.635Z,64.90
2023-08-09T14:36:04.757Z,65.76
2023-08-09T14:46:10.668Z,67.24
2023-08-09T14:56:16.430Z,67.80
2023-08-09T15:06:24.047Z,68.44
2023-08-09T15:16:30.101Z,68.35
2023-08-09T15:26:35.704Z,68.41
2023-08-09T15:36:41.612Z,68.21
2023-08-09T15:46:47.380Z,68.03
2023-08-09T15:56:53.322Z,68.66
2023-08-09T16:06:59.625Z,68.44
2023-08-09T16:17:05.943Z,67.83
2023-08-09T16:27:11.864Z,68.00
2023-08-09T16:37:17.559Z,68.36
2023-08-09T16:47:23.371Z,68.78
2023-08-09T16:57:30.761Z,68.94
2023-08-09T17:07:38.286Z,69.35
2023-08-09T17:17:44.013Z,69.76
2023-08-09T17:27:49.837Z,70.49
2023-08-09T17:37:55.970Z,71.25
2023-08-09T17:48:01.862Z,72.10
2023-08-09T17:58:07.747Z,72.33
2023-08-09T18:08:13.709Z,72.93
2023-08-09T18:18:19.407Z,73.64
2023-08-09T18:28:25.458Z,74.08
2023-08-09T18:38:31.128Z,75.14
2023-08-09T18:48:36.820Z,76.30
2023-08-09T18:58:42.514Z,77.46
2023-08-09T19:08:48.781Z,78.38
2023-08-09T19:18:54.827Z,79.03
2023-08-09T19:29:00.518Z,79.84
2023-08-09T19:39:06.876Z,80.71
2023-08-09T19:49:12.646Z,81.68
2023-08-09T19:59:18.663Z,82.14
2023-08-09T20:09:24.789Z,81.97
2023-08-09T20:19:31.873Z,83.00
2023-08-09T20:29:38.119Z,83.59
2023-08-09T20:39:44.014Z,84.52
2023-08-09T20:49:50.265Z,85.22
2023-08-09T20:59:56.045Z,85.27
2023-08-09T21:10:01.778Z,86.50
2023-08-09T21:20:11.309Z,88.40
2023-08-09T21:30:17.705Z,89.91
2023-08-09T21:40:23.743Z,90.09
2023-08-09T21:50:29.425Z,90.37
2023-08-09T22:00:35.341Z,90.42
2023-08-09T22:10:41.547Z,90.92
2023-08-09T22:20:48.334Z,92.10
2023-08-09T22:30:54.121Z,92.65
2023-08-09T22:40:59.934Z,93.87
2023-08-09T22:51:06.018Z,94.95
2023-08-09T23:01:12.284Z,95.28
2023-08-09T23:11:18.161Z,95.35
2023-08-09T23:21:23.793Z,95.87
2023-08-09T23:31:29.591Z,96.78
2023-08-09T23:41:35.575Z,97.68
2023-08-09T23:51:41.286Z,99.20
